sensor_id;sensor_type;location;lat;lon;timestamp;P1;durP1;ratioP1;P2;durP2;ratioP2
17773;SDS011;9011;33.236;-97.118;2023-07-08T00:02:15;3.67;;;1.60;;
17773;SDS011;9011;33.236;-97.118;2023-07-08T00:04:43;4.35;;;1.80;;
17773;SDS011;9011;33.236;-97.118;2023-07-08T00:07:12;6.63;;;1.50;;
17773;SDS011;9011;33.236;-97.118;2023-07-08T00:09:42;5.20;;;2.03;;
17773;SDS011;9011;33.236;-97.118;2023-07-08T00:12:12;7.80;;;2.25;;
17773;SDS011;9011;33.236;-97.118;2023-07-08T00:14:41;5.28;;;2.28;;
17773;SDS011;9011;33.236;-97.118;2023-07-08T00:17:10;5.28;;;1.88;;
17773;SDS011;9011;33.236;-97.118;2023-07-08T00:19:39;4.47;;;2.17;;
17773;SDS011;9011;33.236;-97.118;2023-07-08T00:22:10;5.50;;;2.45;;
17773;SDS011;9011;33.236;-97.118;2023-07-08T00:24:41;4.35;;;1.50;;
17773;SDS011;9011;33.236;-97.118;2023-07-08T00:27:11;4.63;;;2.17;;
17773;SDS011;9011;33.236;-97.118;2023-07-08T00:29:40;6.32;;;2.13;;
17773;SDS011;9011;33.236;-97.118;2023-07-08T00:32:12;9.32;;;2.40;;
17773;SDS011;9011;33.236;-97.118;2023-07-08T00:34:42;7.10;;;1.88;;
17773;SDS011;9011;33.236;-97.118;2023-07-08T00:37:11;6.38;;;1.63;;
17773;SDS011;9011;33.236;-97.118;2023-07-08T00:39:39;6.78;;;1.88;;
17773;SDS011;9011;33.236;-97.118;2023-07-08T00:42:13;5.93;;;1.90;;
17773;SDS011;9011;33.236;-97.118;2023-07-08T00:44:45;6.32;;;2.33;;
17773;SDS011;9011;33.236;-97.118;2023-07-08T00:47:15;3.22;;;1.88;;
17773;SDS011;9011;33.236;-97.118;2023-07-08T00:49:45;6.88;;;2.25;;
17773;SDS011;9011;33.236;-97.118;2023-07-08T00:52:17;4.90;;;2.33;;
17773;SDS011;9011;33.236;-97.118;2023-07-08T00:54:51;10.25;;;2.10;;
17773;SDS011;9011;33.236;-97.118;2023-07-08T00:57:23;4.72;;;2.40;;
17773;SDS011;9011;33.236;-97.118;2023-07-08T00:59:55;4.25;;;2.45;;
17773;SDS011;9011;33.236;-97.118;2023-07-08T01:02:28;3.83;;;2.05;;
17773;SDS011;9011;33.236;-97.118;2023-07-08T01:05:01;5.97;;;2.38;;
17773;SDS011;9011;33.236;-97.118;2023-07-08T01:07:33;5.85;;;2.20;;
17773;SDS011;9011;33.236;-97.118;2023-07-08T01:10:03;4.25;;;2.00;;
17773;SDS011;9011;33.236;-97.118;2023-07-08T01:12:39;8.40;;;2.38;;
17773;SDS011;9011;33.236;-97.118;2023-07-08T01:15:10;5.20;;;2.50;;
17773;SDS011;9011;33.236;-97.118;2023-07-08T01:17:40;5.25;;;2.33;;
17773;SDS011;9011;33.236;-97.118;2023-07-08T01:20:10;7.97;;;2.33;;
17773;SDS011;9011;33.236;-97.118;2023-07-08T01:22:41;4.18;;;1.73;;
17773;SDS011;9011;33.236;-97.118;2023-07-08T01:25:11;6.43;;;2.47;;
17773;SDS011;9011;33.236;-97.118;2023-07-08T01:27:41;3.90;;;2.30;;
17773;SDS011;9011;33.236;-97.118;2023-07-08T01:30:12;5.38;;;2.53;;
17773;SDS011;9011;33.236;-97.118;2023-07-08T01:32:44;6.43;;;2.40;;
17773;SDS011;9011;33.236;-97.118;2023-07-08T01:35:16;4.75;;;2.60;;
17773;SDS011;9011;33.236;-97.118;2023-07-08T01:37:47;8.52;;;2.55;;
17773;SDS011;9011;33.236;-97.118;2023-07-08T01:40:22;7.10;;;2.63;;
17773;SDS011;9011;33.236;-97.118;2023-07-08T01:42:53;3.50;;;2.38;;
17773;SDS011;9011;33.236;-97.118;2023-07-08T01:45:24;7.07;;;3.08;;
17773;SDS011;9011;33.236;-97.118;2023-07-08T01:47:56;7.25;;;2.90;;
17773;SDS011;9011;33.236;-97.118;2023-07-08T01:50:27;7.28;;;2.97;;
17773;SDS011;9011;33.236;-97.118;2023-07-08T01:53:00;5.68;;;2.78;;
17773;SDS011;9011;33.236;-97.118;2023-07-08T01:55:32;6.00;;;2.72;;
17773;SDS011;9011;33.236;-97.118;2023-07-08T01:58:01;6.20;;;2.80;;
17773;SDS011;9011;33.236;-97.118;2023-07-08T02:00:29;7.85;;;3.25;;
17773;SDS011;9011;33.236;-97.118;2023-07-08T02:02:57;6.38;;;2.97;;
17773;SDS011;9011;33.236;-97.118;2023-07-08T02:05:26;7.00;;;2.42;;
17773;SDS011;9011;33.236;-97.118;2023-07-08T02:07:54;5.50;;;2.47;;
17773;SDS011;9011;33.236;-97.118;2023-07-08T02:10:24;7.60;;;2.53;;
17773;SDS011;9011;33.236;-97.118;2023-07-08T02:12:52;6.45;;;2.53;;
17773;SDS011;9011;33.236;-97.118;2023-07-08T02:15:21;6.22;;;2.05;;
17773;SDS011;9011;33.236;-97.118;2023-07-08T02:17:49;5.70;;;2.55;;
17773;SDS011;9011;33.236;-97.118;2023-07-08T02:20:18;4.70;;;2.40;;
17773;SDS011;9011;33.236;-97.118;2023-07-08T02:22:46;4.93;;;2.55;;
17773;SDS011;9011;33.236;-97.118;2023-07-08T02:25:15;7.65;;;2.38;;
17773;SDS011;9011;33.236;-97.118;2023-07-08T02:27:45;8.25;;;2.85;;
17773;SDS011;9011;33.236;-97.118;2023-07-08T02:30:13;6.97;;;2.30;;
17773;SDS011;9011;33.236;-97.118;2023-07-08T02:32:42;5.70;;;2.55;;
17773;SDS011;9011;33.236;-97.118;2023-07-08T02:35:22;6.30;;;2.42;;
17773;SDS011;9011;33.236;-97.118;2023-07-08T02:37:52;7.00;;;2.20;;
17773;SDS011;9011;33.236;-97.118;2023-07-08T02:40:21;5.82;;;2.10;;
17773;SDS011;9011;33.236;-97.118;2023-07-08T02:42:51;5.85;;;2.40;;
17773;SDS011;9011;33.236;-97.118;2023-07-08T02:45:19;5.68;;;2.38;;
17773;SDS011;9011;33.236;-97.118;2023-07-08T02:47:48;4.82;;;2.40;;
17773;SDS011;9011;33.236;-97.118;2023-07-08T02:50:16;3.95;;;2.35;;
17773;SDS011;9011;33.236;-97.118;2023-07-08T02:52:44;5.93;;;2.40;;
17773;SDS011;9011;33.236;-97.118;2023-07-08T02:55:13;6.82;;;2.47;;
17773;SDS011;9011;33.236;-97.118;2023-07-08T02:57:41;5.43;;;2.15;;
17773;SDS011;9011;33.236;-97.118;2023-07-08T03:00:12;6.22;;;2.67;;
17773;SDS011;9011;33.236;-97.118;2023-07-08T03:02:41;4.78;;;2.42;;
17773;SDS011;9011;33.236;-97.118;2023-07-08T03:05:09;4.43;;;2.47;;
17773;SDS011;9011;33.236;-97.118;2023-07-08T03:07:38;6.13;;;2.55;;
17773;SDS011;9011;33.236;-97.118;2023-07-08T03:10:06;6.20;;;2.22;;
17773;SDS011;9011;33.236;-97.118;2023-07-08T03:12:35;7.53;;;2.45;;
17773;SDS011;9011;33.236;-97.118;2023-07-08T03:15:04;4.03;;;1.90;;
17773;SDS011;9011;33.236;-97.118;2023-07-08T03:17:35;5.18;;;2.13;;
17773;SDS011;9011;33.236;-97.118;2023-07-08T03:20:04;5.82;;;2.20;;
17773;SDS011;9011;33.236;-97.118;2023-07-08T03:22:33;3.90;;;1.63;;
17773;SDS011;9011;33.236;-97.118;2023-07-08T03:25:01;6.75;;;2.30;;
17773;SDS011;9011;33.236;-97.118;2023-07-08T03:27:30;4.82;;;2.20;;
17773;SDS011;9011;33.236;-97.118;2023-07-08T03:29:58;4.00;;;1.75;;
17773;SDS011;9011;33.236;-97.118;2023-07-08T03:32:26;3.80;;;2.08;;
17773;SDS011;9011;33.236;-97.118;2023-07-08T03:34:56;4.50;;;2.00;;
17773;SDS011;9011;33.236;-97.118;2023-07-08T03:37:27;5.75;;;1.90;;
17773;SDS011;9011;33.236;-97.118;2023-07-08T03:39:55;3.67;;;2.05;;
17773;SDS011;9011;33.236;-97.118;2023-07-08T03:42:24;4.30;;;2.00;;
17773;SDS011;9011;33.236;-97.118;2023-07-08T03:44:52;5.57;;;2.38;;
17773;SDS011;9011;33.236;-97.118;2023-07-08T03:47:20;4.57;;;1.80;;
17773;SDS011;9011;33.236;-97.118;2023-07-08T03:49:49;4.15;;;2.30;;
17773;SDS011;9011;33.236;-97.118;2023-07-08T03:52:18;5.57;;;2.53;;
17773;SDS011;9011;33.236;-97.118;2023-07-08T03:54:47;5.32;;;2.03;;
17773;SDS011;9011;33.236;-97.118;2023-07-08T03:57:15;3.45;;;2.42;;
17773;SDS011;9011;33.236;-97.118;2023-07-08T03:59:44;4.22;;;1.92;;
17773;SDS011;9011;33.236;-97.118;2023-07-08T04:02:12;7.55;;;2.25;;
17773;SDS011;9011;33.236;-97.118;2023-07-08T04:04:41;4.60;;;2.00;;
17773;SDS011;9011;33.236;-97.118;2023-07-08T04:07:09;5.50;;;2.17;;
17773;SDS011;9011;33.236;-97.118;2023-07-08T04:09:40;3.72;;;2.03;;
17773;SDS011;9011;33.236;-97.118;2023-07-08T04:12:12;4.05;;;2.00;;
17773;SDS011;9011;33.236;-97.118;2023-07-08T04:14:41;4.78;;;1.83;;
17773;SDS011;9011;33.236;-97.118;2023-07-08T04:17:09;3.60;;;1.83;;
17773;SDS011;9011;33.236;-97.118;2023-07-08T04:19:38;5.78;;;2.28;;
17773;SDS011;9011;33.236;-97.118;2023-07-08T04:22:09;3.40;;;1.83;;
17773;SDS011;9011;33.236;-97.118;2023-07-08T04:24:37;3.22;;;1.67;;
17773;SDS011;9011;33.236;-97.118;2023-07-08T04:27:08;4.13;;;1.95;;
17773;SDS011;9011;33.236;-97.118;2023-07-08T04:29:40;4.18;;;1.75;;
17773;SDS011;9011;33.236;-97.118;2023-07-08T04:32:09;6.70;;;1.50;;
17773;SDS011;9011;33.236;-97.118;2023-07-08T04:34:38;4.70;;;1.85;;
17773;SDS011;9011;33.236;-97.118;2023-07-08T04:37:07;5.85;;;1.73;;
17773;SDS011;9011;33.236;-97.118;2023-07-08T04:39:38;4.72;;;1.95;;
17773;SDS011;9011;33.236;-97.118;2023-07-08T04:42:10;4.18;;;1.92;;
17773;SDS011;9011;33.236;-97.118;2023-07-08T04:44:43;4.15;;;1.65;;
17773;SDS011;9011;33.236;-97.118;2023-07-08T04:47:15;4.15;;;2.00;;
17773;SDS011;9011;33.236;-97.118;2023-07-08T04:49:45;3.20;;;1.48;;
17773;SDS011;9011;33.236;-97.118;2023-07-08T04:52:14;3.20;;;1.80;;
17773;SDS011;9011;33.236;-97.118;2023-07-08T04:54:43;3.50;;;1.80;;
17773;SDS011;9011;33.236;-97.118;2023-07-08T04:57:12;4.00;;;2.13;;
17773;SDS011;9011;33.236;-97.118;2023-07-08T04:59:42;5.13;;;1.80;;
17773;SDS011;9011;33.236;-97.118;2023-07-08T05:02:10;4.97;;;1.95;;
17773;SDS011;9011;33.236;-97.118;2023-07-08T05:04:39;2.88;;;1.48;;
17773;SDS011;9011;33.236;-97.118;2023-07-08T05:07:08;3.35;;;1.67;;
17773;SDS011;9011;33.236;-97.118;2023-07-08T05:09:36;6.38;;;2.03;;
17773;SDS011;9011;33.236;-97.118;2023-07-08T05:12:06;4.65;;;1.75;;
17773;SDS011;9011;33.236;-97.118;2023-07-08T05:14:35;5.82;;;1.92;;
17773;SDS011;9011;33.236;-97.118;2023-07-08T05:17:03;3.03;;;1.80;;
17773;SDS011;9011;33.236;-97.118;2023-07-08T05:19:32;3.35;;;1.70;;
17773;SDS011;9011;33.236;-97.118;2023-07-08T05:22:00;2.85;;;1.92;;
17773;SDS011;9011;33.236;-97.118;2023-07-08T05:24:29;9.00;;;2.65;;
17773;SDS011;9011;33.236;-97.118;2023-07-08T05:26:57;8.98;;;2.45;;
17773;SDS011;9011;33.236;-97.118;2023-07-08T05:29:27;3.03;;;1.70;;
17773;SDS011;9011;33.236;-97.118;2023-07-08T05:31:55;2.85;;;1.55;;
17773;SDS011;9011;33.236;-97.118;2023-07-08T05:34:24;4.30;;;1.58;;
17773;SDS011;9011;33.236;-97.118;2023-07-08T05:36:52;5.32;;;1.63;;
17773;SDS011;9011;33.236;-97.118;2023-07-08T05:39:20;4.88;;;1.98;;
17773;SDS011;9011;33.236;-97.118;2023-07-08T05:41:49;3.90;;;1.60;;
17773;SDS011;9011;33.236;-97.118;2023-07-08T05:44:17;3.40;;;1.70;;
17773;SDS011;9011;33.236;-97.118;2023-07-08T05:46:47;4.00;;;1.45;;
17773;SDS011;9011;33.236;-97.118;2023-07-08T05:49:16;4.07;;;1.67;;
17773;SDS011;9011;33.236;-97.118;2023-07-08T05:51:45;3.00;;;1.55;;
17773;SDS011;9011;33.236;-97.118;2023-07-08T05:54:13;3.08;;;1.60;;
17773;SDS011;9011;33.236;-97.118;2023-07-08T05:56:42;4.90;;;1.90;;
17773;SDS011;9011;33.236;-97.118;2023-07-08T05:59:10;3.10;;;1.45;;
17773;SDS011;9011;33.236;-97.118;2023-07-08T06:01:39;5.32;;;2.00;;
17773;SDS011;9011;33.236;-97.118;2023-07-08T06:04:09;4.07;;;1.45;;
17773;SDS011;9011;33.236;-97.118;2023-07-08T06:06:37;3.58;;;1.80;;
17773;SDS011;9011;33.236;-97.118;2023-07-08T06:09:05;6.30;;;1.70;;
17773;SDS011;9011;33.236;-97.118;2023-07-08T06:11:34;3.50;;;1.70;;
17773;SDS011;9011;33.236;-97.118;2023-07-08T06:14:02;5.00;;;1.75;;
17773;SDS011;9011;33.236;-97.118;2023-07-08T06:16:31;1.45;;;1.30;;
17773;SDS011;9011;33.236;-97.118;2023-07-08T06:19:00;4.05;;;1.80;;
17773;SDS011;9011;33.236;-97.118;2023-07-08T06:21:30;2.72;;;1.45;;
17773;SDS011;9011;33.236;-97.118;2023-07-08T06:23:58;2.42;;;1.58;;
17773;SDS011;9011;33.236;-97.118;2023-07-08T06:26:27;4.25;;;2.05;;
17773;SDS011;9011;33.236;-97.118;2023-07-08T06:28:55;3.00;;;1.45;;
17773;SDS011;9011;33.236;-97.118;2023-07-08T06:31:23;3.80;;;1.55;;
17773;SDS011;9011;33.236;-97.118;2023-07-08T06:33:52;4.18;;;1.92;;
17773;SDS011;9011;33.236;-97.118;2023-07-08T06:36:20;3.10;;;1.80;;
17773;SDS011;9011;33.236;-97.118;2023-07-08T06:38:50;3.88;;;1.80;;
17773;SDS011;9011;33.236;-97.118;2023-07-08T06:41:19;3.35;;;1.65;;
17773;SDS011;9011;33.236;-97.118;2023-07-08T06:43:47;3.95;;;1.85;;
17773;SDS011;9011;33.236;-97.118;2023-07-08T06:46:15;3.10;;;1.90;;
17773;SDS011;9011;33.236;-97.118;2023-07-08T06:48:44;5.63;;;2.08;;
17773;SDS011;9011;33.236;-97.118;2023-07-08T06:51:12;4.72;;;1.90;;
17773;SDS011;9011;33.236;-97.118;2023-07-08T06:53:41;4.55;;;2.00;;
17773;SDS011;9011;33.236;-97.118;2023-07-08T06:56:11;5.20;;;1.88;;
17773;SDS011;9011;33.236;-97.118;2023-07-08T06:58:39;4.18;;;1.67;;
17773;SDS011;9011;33.236;-97.118;2023-07-08T07:01:07;4.60;;;2.00;;
17773;SDS011;9011;33.236;-97.118;2023-07-08T07:03:36;3.83;;;1.80;;
17773;SDS011;9011;33.236;-97.118;2023-07-08T07:06:04;4.88;;;2.17;;
17773;SDS011;9011;33.236;-97.118;2023-07-08T07:08:33;3.83;;;1.60;;
17773;SDS011;9011;33.236;-97.118;2023-07-08T07:11:02;2.75;;;1.88;;
17773;SDS011;9011;33.236;-97.118;2023-07-08T07:13:31;5.20;;;2.13;;
17773;SDS011;9011;33.236;-97.118;2023-07-08T07:16:00;3.50;;;1.77;;
17773;SDS011;9011;33.236;-97.118;2023-07-08T07:18:28;3.53;;;2.15;;
17773;SDS011;9011;33.236;-97.118;2023-07-08T07:20:57;3.53;;;2.10;;
17773;SDS011;9011;33.236;-97.118;2023-07-08T07:23:26;2.30;;;2.10;;
17773;SDS011;9011;33.236;-97.118;2023-07-08T07:25:54;3.75;;;2.08;;
17773;SDS011;9011;33.236;-97.118;2023-07-08T07:28:23;2.78;;;2.15;;
17773;SDS011;9011;33.236;-97.118;2023-07-08T07:30:57;3.92;;;1.98;;
17773;SDS011;9011;33.236;-97.118;2023-07-08T07:33:26;3.47;;;2.08;;
17773;SDS011;9011;33.236;-97.118;2023-07-08T07:35:54;4.28;;;2.20;;
17773;SDS011;9011;33.236;-97.118;2023-07-08T07:38:23;2.60;;;1.90;;
17773;SDS011;9011;33.236;-97.118;2023-07-08T07:40:54;3.70;;;1.80;;
17773;SDS011;9011;33.236;-97.118;2023-07-08T07:43:25;2.65;;;1.90;;
17773;SDS011;9011;33.236;-97.118;2023-07-08T07:45:53;4.68;;;2.30;;
17773;SDS011;9011;33.236;-97.118;2023-07-08T07:48:24;2.17;;;1.95;;
17773;SDS011;9011;33.236;-97.118;2023-07-08T07:50:52;3.53;;;2.00;;
17773;SDS011;9011;33.236;-97.118;2023-07-08T07:53:21;2.58;;;1.95;;
17773;SDS011;9011;33.236;-97.118;2023-07-08T07:55:55;4.88;;;2.63;;
17773;SDS011;9011;33.236;-97.118;2023-07-08T07:58:24;4.53;;;2.30;;
17773;SDS011;9011;33.236;-97.118;2023-07-08T08:00:52;4.43;;;2.08;;
17773;SDS011;9011;33.236;-97.118;2023-07-08T08:03:21;4.80;;;2.35;;
17773;SDS011;9011;33.236;-97.118;2023-07-08T08:05:51;3.88;;;2.20;;
17773;SDS011;9011;33.236;-97.118;2023-07-08T08:08:19;4.70;;;2.17;;
17773;SDS011;9011;33.236;-97.118;2023-07-08T08:10:48;5.93;;;2.28;;
17773;SDS011;9011;33.236;-97.118;2023-07-08T08:13:17;4.93;;;2.10;;
17773;SDS011;9011;33.236;-97.118;2023-07-08T08:15:45;3.80;;;2.13;;
17773;SDS011;9011;33.236;-97.118;2023-07-08T08:18:14;6.32;;;2.60;;
17773;SDS011;9011;33.236;-97.118;2023-07-08T08:20:44;5.38;;;2.30;;
17773;SDS011;9011;33.236;-97.118;2023-07-08T08:23:12;4.85;;;2.33;;
17773;SDS011;9011;33.236;-97.118;2023-07-08T08:25:41;2.45;;;2.08;;
17773;SDS011;9011;33.236;-97.118;2023-07-08T08:28:09;4.40;;;2.38;;
17773;SDS011;9011;33.236;-97.118;2023-07-08T08:30:38;3.90;;;2.35;;
17773;SDS011;9011;33.236;-97.118;2023-07-08T08:33:06;4.43;;;2.03;;
17773;SDS011;9011;33.236;-97.118;2023-07-08T08:35:34;5.57;;;2.70;;
17773;SDS011;9011;33.236;-97.118;2023-07-08T08:38:04;4.05;;;2.75;;
17773;SDS011;9011;33.236;-97.118;2023-07-08T08:40:33;4.65;;;2.58;;
17773;SDS011;9011;33.236;-97.118;2023-07-08T08:43:02;4.95;;;2.70;;
17773;SDS011;9011;33.236;-97.118;2023-07-08T08:45:34;4.60;;;2.30;;
17773;SDS011;9011;33.236;-97.118;2023-07-08T08:48:09;2.92;;;2.28;;
17773;SDS011;9011;33.236;-97.118;2023-07-08T08:50:41;3.15;;;2.22;;
17773;SDS011;9011;33.236;-97.118;2023-07-08T08:53:16;4.28;;;2.58;;
17773;SDS011;9011;33.236;-97.118;2023-07-08T08:55:46;6.80;;;2.47;;
17773;SDS011;9011;33.236;-97.118;2023-07-08T08:58:23;4.70;;;2.25;;
17773;SDS011;9011;33.236;-97.118;2023-07-08T09:00:58;4.53;;;2.85;;
17773;SDS011;9011;33.236;-97.118;2023-07-08T09:03:32;3.13;;;2.20;;
17773;SDS011;9011;33.236;-97.118;2023-07-08T09:06:20;2.92;;;2.30;;
17773;SDS011;9011;33.236;-97.118;2023-07-08T09:08:52;4.68;;;2.50;;
17773;SDS011;9011;33.236;-97.118;2023-07-08T09:11:29;5.05;;;2.50;;
17773;SDS011;9011;33.236;-97.118;2023-07-08T09:14:13;3.83;;;1.73;;
17773;SDS011;9011;33.236;-97.118;2023-07-08T09:16:45;5.97;;;2.50;;
17773;SDS011;9011;33.236;-97.118;2023-07-08T09:19:22;3.05;;;2.20;;
17773;SDS011;9011;33.236;-97.118;2023-07-08T09:21:53;5.82;;;2.92;;
17773;SDS011;9011;33.236;-97.118;2023-07-08T09:24:32;5.10;;;2.40;;
17773;SDS011;9011;33.236;-97.118;2023-07-08T09:27:05;4.47;;;2.20;;
17773;SDS011;9011;33.236;-97.118;2023-07-08T09:29:34;3.17;;;2.05;;
17773;SDS011;9011;33.236;-97.118;2023-07-08T09:32:11;6.10;;;2.42;;
17773;SDS011;9011;33.236;-97.118;2023-07-08T09:34:44;3.83;;;2.30;;
17773;SDS011;9011;33.236;-97.118;2023-07-08T09:37:26;4.53;;;3.22;;
17773;SDS011;9011;33.236;-97.118;2023-07-08T09:39:58;5.95;;;2.15;;
17773;SDS011;9011;33.236;-97.118;2023-07-08T09:42:28;4.22;;;2.22;;
17773;SDS011;9011;33.236;-97.118;2023-07-08T09:44:59;4.28;;;2.45;;
17773;SDS011;9011;33.236;-97.118;2023-07-08T09:47:33;5.30;;;2.78;;
17773;SDS011;9011;33.236;-97.118;2023-07-08T09:50:03;4.63;;;2.97;;
17773;SDS011;9011;33.236;-97.118;2023-07-08T09:52:43;4.70;;;2.65;;
17773;SDS011;9011;33.236;-97.118;2023-07-08T09:55:14;3.35;;;2.42;;
17773;SDS011;9011;33.236;-97.118;2023-07-08T09:57:43;4.15;;;2.50;;
17773;SDS011;9011;33.236;-97.118;2023-07-08T10:00:14;3.40;;;2.78;;
17773;SDS011;9011;33.236;-97.118;2023-07-08T10:02:45;5.72;;;2.45;;
17773;SDS011;9011;33.236;-97.118;2023-07-08T10:05:20;4.53;;;2.42;;
17773;SDS011;9011;33.236;-97.118;2023-07-08T10:07:52;5.57;;;2.50;;
17773;SDS011;9011;33.236;-97.118;2023-07-08T10:10:26;4.78;;;2.47;;
17773;SDS011;9011;33.236;-97.118;2023-07-08T10:12:59;4.25;;;2.10;;
17773;SDS011;9011;33.236;-97.118;2023-07-08T10:15:31;4.63;;;2.35;;
17773;SDS011;9011;33.236;-97.118;2023-07-08T10:18:08;2.95;;;2.65;;
17773;SDS011;9011;33.236;-97.118;2023-07-08T10:20:45;7.20;;;2.75;;
17773;SDS011;9011;33.236;-97.118;2023-07-08T10:23:22;7.32;;;2.63;;
17773;SDS011;9011;33.236;-97.118;2023-07-08T10:26:04;5.32;;;2.78;;
17773;SDS011;9011;33.236;-97.118;2023-07-08T10:28:42;6.25;;;2.65;;
17773;SDS011;9011;33.236;-97.118;2023-07-08T10:31:16;4.38;;;2.38;;
17773;SDS011;9011;33.236;-97.118;2023-07-08T10:33:56;3.00;;;2.08;;
17773;SDS011;9011;33.236;-97.118;2023-07-08T10:36:48;4.13;;;2.60;;
17773;SDS011;9011;33.236;-97.118;2023-07-08T10:42:19;3.63;;;2.20;;
17773;SDS011;9011;33.236;-97.118;2023-07-08T10:45:03;3.63;;;2.58;;
17773;SDS011;9011;33.236;-97.118;2023-07-08T10:47:40;3.05;;;2.42;;
17773;SDS011;9011;33.236;-97.118;2023-07-08T10:50:24;3.38;;;2.38;;
17773;SDS011;9011;33.236;-97.118;2023-07-08T10:53:10;4.82;;;2.30;;
17773;SDS011;9011;33.236;-97.118;2023-07-08T10:55:53;4.53;;;2.85;;
17773;SDS011;9011;33.236;-97.118;2023-07-08T10:58:29;3.53;;;2.33;;
17773;SDS011;9011;33.236;-97.118;2023-07-08T11:01:11;5.00;;;2.55;;
17773;SDS011;9011;33.236;-97.118;2023-07-08T11:03:52;4.82;;;2.95;;
17773;SDS011;9011;33.236;-97.118;2023-07-08T11:06:43;3.72;;;2.83;;
17773;SDS011;9011;33.236;-97.118;2023-07-08T11:09:16;5.32;;;2.80;;
17773;SDS011;9011;33.236;-97.118;2023-07-08T11:11:50;8.00;;;2.42;;
17773;SDS011;9011;33.236;-97.118;2023-07-08T11:14:24;5.20;;;2.63;;
17773;SDS011;9011;33.236;-97.118;2023-07-08T11:16:57;4.50;;;2.70;;
17773;SDS011;9011;33.236;-97.118;2023-07-08T11:19:35;5.47;;;2.63;;
17773;SDS011;9011;33.236;-97.118;2023-07-08T11:22:07;7.13;;;3.17;;
17773;SDS011;9011;33.236;-97.118;2023-07-08T11:24:39;2.85;;;2.53;;
17773;SDS011;9011;33.236;-97.118;2023-07-08T11:27:15;4.45;;;2.92;;
17773;SDS011;9011;33.236;-97.118;2023-07-08T11:29:52;4.15;;;2.50;;
17773;SDS011;9011;33.236;-97.118;2023-07-08T11:32:25;4.13;;;2.55;;
17773;SDS011;9011;33.236;-97.118;2023-07-08T11:34:55;5.45;;;2.65;;
17773;SDS011;9011;33.236;-97.118;2023-07-08T11:37:26;4.20;;;2.47;;
17773;SDS011;9011;33.236;-97.118;2023-07-08T11:39:57;6.85;;;2.88;;
17773;SDS011;9011;33.236;-97.118;2023-07-08T11:42:31;3.38;;;2.70;;
17773;SDS011;9011;33.236;-97.118;2023-07-08T11:45:06;3.97;;;2.90;;
17773;SDS011;9011;33.236;-97.118;2023-07-08T11:47:44;7.13;;;3.17;;
17773;SDS011;9011;33.236;-97.118;2023-07-08T11:50:17;3.75;;;3.03;;
17773;SDS011;9011;33.236;-97.118;2023-07-08T11:52:51;3.28;;;2.67;;
17773;SDS011;9011;33.236;-97.118;2023-07-08T11:55:22;4.57;;;3.53;;
17773;SDS011;9011;33.236;-97.118;2023-07-08T11:57:54;5.60;;;2.97;;
17773;SDS011;9011;33.236;-97.118;2023-07-08T12:00:25;4.88;;;3.00;;
17773;SDS011;9011;33.236;-97.118;2023-07-08T12:02:58;5.63;;;3.03;;
17773;SDS011;9011;33.236;-97.118;2023-07-08T12:05:32;4.47;;;3.22;;
17773;SDS011;9011;33.236;-97.118;2023-07-08T12:08:02;4.90;;;3.45;;
17773;SDS011;9011;33.236;-97.118;2023-07-08T12:10:40;5.32;;;3.38;;
17773;SDS011;9011;33.236;-97.118;2023-07-08T12:13:14;5.93;;;3.22;;
17773;SDS011;9011;33.236;-97.118;2023-07-08T12:15:53;7.68;;;3.00;;
17773;SDS011;9011;33.236;-97.118;2023-07-08T12:18:27;7.35;;;3.55;;
17773;SDS011;9011;33.236;-97.118;2023-07-08T12:21:00;5.60;;;2.78;;
17773;SDS011;9011;33.236;-97.118;2023-07-08T12:23:29;4.20;;;2.90;;
17773;SDS011;9011;33.236;-97.118;2023-07-08T12:25:57;4.50;;;3.25;;
17773;SDS011;9011;33.236;-97.118;2023-07-08T12:28:26;5.95;;;3.40;;
17773;SDS011;9011;33.236;-97.118;2023-07-08T12:30:56;5.70;;;3.17;;
17773;SDS011;9011;33.236;-97.118;2023-07-08T12:33:26;6.07;;;3.10;;
17773;SDS011;9011;33.236;-97.118;2023-07-08T12:35:56;5.82;;;3.42;;
17773;SDS011;9011;33.236;-97.118;2023-07-08T12:38:27;5.35;;;3.33;;
17773;SDS011;9011;33.236;-97.118;2023-07-08T12:40:58;4.13;;;2.60;;
17773;SDS011;9011;33.236;-97.118;2023-07-08T12:43:32;6.10;;;3.08;;
17773;SDS011;9011;33.236;-97.118;2023-07-08T12:46:02;4.00;;;2.70;;
17773;SDS011;9011;33.236;-97.118;2023-07-08T12:48:33;3.85;;;2.65;;
17773;SDS011;9011;33.236;-97.118;2023-07-08T12:51:02;3.20;;;2.47;;
17773;SDS011;9011;33.236;-97.118;2023-07-08T12:53:31;5.93;;;2.90;;
17773;SDS011;9011;33.236;-97.118;2023-07-08T12:56:00;5.75;;;2.80;;
17773;SDS011;9011;33.236;-97.118;2023-07-08T12:58:29;3.80;;;2.50;;
17773;SDS011;9011;33.236;-97.118;2023-07-08T13:01:00;4.85;;;2.88;;
17773;SDS011;9011;33.236;-97.118;2023-07-08T13:03:33;5.72;;;2.65;;
17773;SDS011;9011;33.236;-97.118;2023-07-08T13:06:04;4.28;;;2.40;;
17773;SDS011;9011;33.236;-97.118;2023-07-08T13:08:34;7.40;;;2.72;;
17773;SDS011;9011;33.236;-97.118;2023-07-08T13:11:04;3.13;;;2.75;;
17773;SDS011;9011;33.236;-97.118;2023-07-08T13:13:34;5.10;;;3.10;;
17773;SDS011;9011;33.236;-97.118;2023-07-08T13:16:07;7.10;;;3.30;;
17773;SDS011;9011;33.236;-97.118;2023-07-08T13:18:38;5.97;;;3.05;;
17773;SDS011;9011;33.236;-97.118;2023-07-08T13:21:09;5.43;;;2.65;;
17773;SDS011;9011;33.236;-97.118;2023-07-08T13:23:39;4.68;;;3.00;;
17773;SDS011;9011;33.236;-97.118;2023-07-08T13:26:12;8.23;;;3.17;;
17773;SDS011;9011;33.236;-97.118;2023-07-08T13:28:41;3.47;;;3.03;;
17773;SDS011;9011;33.236;-97.118;2023-07-08T13:31:17;4.00;;;2.47;;
17773;SDS011;9011;33.236;-97.118;2023-07-08T13:33:47;7.15;;;3.25;;
17773;SDS011;9011;33.236;-97.118;2023-07-08T13:36:16;8.40;;;2.92;;
17773;SDS011;9011;33.236;-97.118;2023-07-08T13:38:46;8.15;;;3.03;;
17773;SDS011;9011;33.236;-97.118;2023-07-08T13:41:17;8.88;;;3.33;;
17773;SDS011;9011;33.236;-97.118;2023-07-08T13:43:49;7.55;;;3.22;;
17773;SDS011;9011;33.236;-97.118;2023-07-08T13:49:11;5.80;;;2.63;;
17773;SDS011;9011;33.236;-97.118;2023-07-08T13:51:41;7.80;;;2.83;;
17773;SDS011;9011;33.236;-97.118;2023-07-08T13:54:18;6.82;;;2.95;;
17773;SDS011;9011;33.236;-97.118;2023-07-08T13:56:48;8.25;;;3.92;;
17773;SDS011;9011;33.236;-97.118;2023-07-08T13:59:18;8.50;;;3.25;;
17773;SDS011;9011;33.236;-97.118;2023-07-08T14:01:50;4.63;;;3.15;;
17773;SDS011;9011;33.236;-97.118;2023-07-08T14:04:28;6.30;;;3.42;;
17773;SDS011;9011;33.236;-97.118;2023-07-08T14:06:59;5.53;;;3.05;;
17773;SDS011;9011;33.236;-97.118;2023-07-08T14:09:28;4.88;;;2.97;;
17773;SDS011;9011;33.236;-97.118;2023-07-08T14:11:56;6.07;;;3.28;;
17773;SDS011;9011;33.236;-97.118;2023-07-08T14:14:24;5.80;;;3.22;;
17773;SDS011;9011;33.236;-97.118;2023-07-08T14:16:54;6.07;;;2.90;;
17773;SDS011;9011;33.236;-97.118;2023-07-08T14:19:24;5.95;;;2.97;;
17773;SDS011;9011;33.236;-97.118;2023-07-08T14:21:54;5.75;;;3.25;;
17773;SDS011;9011;33.236;-97.118;2023-07-08T14:24:24;6.97;;;3.53;;
17773;SDS011;9011;33.236;-97.118;2023-07-08T14:26:52;4.60;;;3.17;;
17773;SDS011;9011;33.236;-97.118;2023-07-08T14:29:21;5.57;;;2.97;;
17773;SDS011;9011;33.236;-97.118;2023-07-08T14:31:49;4.45;;;3.53;;
17773;SDS011;9011;33.236;-97.118;2023-07-08T14:34:20;6.95;;;3.38;;
17773;SDS011;9011;33.236;-97.118;2023-07-08T14:36:53;6.18;;;2.90;;
17773;SDS011;9011;33.236;-97.118;2023-07-08T14:39:22;5.00;;;3.50;;
17773;SDS011;9011;33.236;-97.118;2023-07-08T14:41:50;4.97;;;3.15;;
17773;SDS011;9011;33.236;-97.118;2023-07-08T14:44:22;6.20;;;3.28;;
17773;SDS011;9011;33.236;-97.118;2023-07-08T14:46:52;6.95;;;3.28;;
17773;SDS011;9011;33.236;-97.118;2023-07-08T14:49:23;5.88;;;3.38;;
17773;SDS011;9011;33.236;-97.118;2023-07-08T14:51:55;7.00;;;3.15;;
17773;SDS011;9011;33.236;-97.118;2023-07-08T14:54:23;4.78;;;3.03;;
17773;SDS011;9011;33.236;-97.118;2023-07-08T14:56:52;3.58;;;2.95;;
17773;SDS011;9011;33.236;-97.118;2023-07-08T14:59:24;7.75;;;3.63;;
17773;SDS011;9011;33.236;-97.118;2023-07-08T15:01:55;5.80;;;3.30;;